sensor_id;sensor_type;location;lat;lon;timestamp;P1;durP1;ratioP1;P2;durP2;ratioP2
68010;SDS011;54794;48.348;7.878;2023-02-13T00:00:42;2.50;;;1.50;;
68010;SDS011;54794;48.348;7.878;2023-02-13T00:03:09;2.80;;;1.70;;
68010;SDS011;54794;48.348;7.878;2023-02-13T00:05:36;2.70;;;1.75;;
68010;SDS011;54794;48.348;7.878;2023-02-13T00:08:03;3.70;;;1.42;;
68010;SDS011;54794;48.348;7.878;2023-02-13T00:10:30;2.10;;;1.35;;
68010;SDS011;54794;48.348;7.878;2023-02-13T00:12:57;1.88;;;1.30;;
68010;SDS011;54794;48.348;7.878;2023-02-13T00:15:24;2.00;;;1.33;;
68010;SDS011;54794;48.348;7.878;2023-02-13T00:17:51;1.98;;;1.42;;
68010;SDS011;54794;48.348;7.878;2023-02-13T00:20:17;2.80;;;1.42;;
68010;SDS011;54794;48.348;7.878;2023-02-13T00:22:45;2.53;;;1.58;;
68010;SDS011;54794;48.348;7.878;2023-02-13T00:25:11;2.53;;;1.70;;
68010;SDS011;54794;48.348;7.878;2023-02-13T00:27:38;2.75;;;1.70;;
68010;SDS011;54794;48.348;7.878;2023-02-13T00:30:05;2.80;;;1.88;;
68010;SDS011;54794;48.348;7.878;2023-02-13T00:32:33;3.03;;;2.05;;
68010;SDS011;54794;48.348;7.878;2023-02-13T00:35:00;2.72;;;1.80;;
68010;SDS011;54794;48.348;7.878;2023-02-13T00:37:27;3.25;;;2.10;;
68010;SDS011;54794;48.348;7.878;2023-02-13T00:39:54;3.03;;;2.10;;
68010;SDS011;54794;48.348;7.878;2023-02-13T00:42:21;2.63;;;1.67;;
68010;SDS011;54794;48.348;7.878;2023-02-13T00:44:51;3.33;;;2.05;;
68010;SDS011;54794;48.348;7.878;2023-02-13T00:47:19;2.88;;;1.80;;
68010;SDS011;54794;48.348;7.878;2023-02-13T00:49:47;3.25;;;2.03;;
68010;SDS011;54794;48.348;7.878;2023-02-13T00:52:14;4.18;;;2.25;;
68010;SDS011;54794;48.348;7.878;2023-02-13T00:54:41;2.92;;;2.10;;
68010;SDS011;54794;48.348;7.878;2023-02-13T00:57:08;3.58;;;1.92;;
68010;SDS011;54794;48.348;7.878;2023-02-13T00:59:34;2.65;;;1.73;;
68010;SDS011;54794;48.348;7.878;2023-02-13T01:02:01;2.47;;;1.70;;
68010;SDS011;54794;48.348;7.878;2023-02-13T01:04:29;3.65;;;1.80;;
68010;SDS011;54794;48.348;7.878;2023-02-13T01:06:56;2.80;;;1.63;;
68010;SDS011;54794;48.348;7.878;2023-02-13T01:09:23;2.40;;;1.63;;
68010;SDS011;54794;48.348;7.878;2023-02-13T01:11:50;1.95;;;1.45;;
68010;SDS011;54794;48.348;7.878;2023-02-13T01:14:17;3.17;;;1.75;;
68010;SDS011;54794;48.348;7.878;2023-02-13T01:16:44;2.72;;;1.55;;
68010;SDS011;54794;48.348;7.878;2023-02-13T01:19:11;3.80;;;2.10;;
68010;SDS011;54794;48.348;7.878;2023-02-13T01:21:38;1.95;;;1.40;;
68010;SDS011;54794;48.348;7.878;2023-02-13T01:24:05;3.95;;;2.50;;
68010;SDS011;54794;48.348;7.878;2023-02-13T01:26:32;5.78;;;3.33;;
68010;SDS011;54794;48.348;7.878;2023-02-13T01:28:59;4.50;;;2.72;;
68010;SDS011;54794;48.348;7.878;2023-02-13T01:31:26;6.82;;;3.85;;
68010;SDS011;54794;48.348;7.878;2023-02-13T01:33:56;6.45;;;2.88;;
68010;SDS011;54794;48.348;7.878;2023-02-13T01:36:24;4.93;;;3.35;;
68010;SDS011;54794;48.348;7.878;2023-02-13T01:38:55;6.25;;;3.92;;
68010;SDS011;54794;48.348;7.878;2023-02-13T01:41:25;6.15;;;3.65;;
68010;SDS011;54794;48.348;7.878;2023-02-13T01:43:54;5.38;;;3.25;;
68010;SDS011;54794;48.348;7.878;2023-02-13T01:46:40;4.57;;;2.90;;
68010;SDS011;54794;48.348;7.878;2023-02-13T01:49:11;5.68;;;3.35;;
68010;SDS011;54794;48.348;7.878;2023-02-13T01:51:45;5.97;;;3.25;;
68010;SDS011;54794;48.348;7.878;2023-02-13T01:54:17;5.55;;;2.95;;
68010;SDS011;54794;48.348;7.878;2023-02-13T01:57:00;5.47;;;3.22;;
68010;SDS011;54794;48.348;7.878;2023-02-13T01:59:35;4.88;;;3.08;;
68010;SDS011;54794;48.348;7.878;2023-02-13T02:02:12;5.30;;;3.47;;
68010;SDS011;54794;48.348;7.878;2023-02-13T02:04:40;4.82;;;3.08;;
68010;SDS011;54794;48.348;7.878;2023-02-13T02:07:10;5.65;;;3.30;;
68010;SDS011;54794;48.348;7.878;2023-02-13T02:09:48;6.25;;;3.20;;
68010;SDS011;54794;48.348;7.878;2023-02-13T02:12:22;3.60;;;2.63;;
68010;SDS011;54794;48.348;7.878;2023-02-13T02:15:01;4.22;;;2.53;;
68010;SDS011;54794;48.348;7.878;2023-02-13T02:17:32;4.18;;;2.85;;
68010;SDS011;54794;48.348;7.878;2023-02-13T02:20:03;5.38;;;3.00;;
68010;SDS011;54794;48.348;7.878;2023-02-13T02:26:14;4.03;;;2.70;;
68010;SDS011;54794;48.348;7.878;2023-02-13T02:38:07;3.67;;;2.22;;
68010;SDS011;54794;48.348;7.878;2023-02-13T02:41:23;3.17;;;1.80;;
68010;SDS011;54794;48.348;7.878;2023-02-13T02:44:08;2.75;;;1.63;;
68010;SDS011;54794;48.348;7.878;2023-02-13T02:47:20;3.00;;;1.80;;
68010;SDS011;54794;48.348;7.878;2023-02-13T02:50:25;2.97;;;1.70;;
68010;SDS011;54794;48.348;7.878;2023-02-13T02:56:05;3.15;;;1.75;;
68010;SDS011;54794;48.348;7.878;2023-02-13T02:58:46;3.65;;;2.28;;
68010;SDS011;54794;48.348;7.878;2023-02-13T03:01:51;3.22;;;1.88;;
68010;SDS011;54794;48.348;7.878;2023-02-13T03:04:39;2.95;;;1.75;;
68010;SDS011;54794;48.348;7.878;2023-02-13T03:07:30;2.92;;;1.70;;
68010;SDS011;54794;48.348;7.878;2023-02-13T03:10:05;2.63;;;1.73;;
68010;SDS011;54794;48.348;7.878;2023-02-13T03:15:46;3.65;;;1.95;;
68010;SDS011;54794;48.348;7.878;2023-02-13T03:18:42;3.72;;;2.17;;
68010;SDS011;54794;48.348;7.878;2023-02-13T03:27:34;3.40;;;1.80;;
68010;SDS011;54794;48.348;7.878;2023-02-13T03:36:01;2.25;;;1.50;;
68010;SDS011;54794;48.348;7.878;2023-02-13T03:39:43;2.38;;;1.55;;
68010;SDS011;54794;48.348;7.878;2023-02-13T03:42:12;2.55;;;1.67;;
68010;SDS011;54794;48.348;7.878;2023-02-13T03:44:53;2.55;;;1.55;;
68010;SDS011;54794;48.348;7.878;2023-02-13T03:47:52;2.65;;;1.75;;
68010;SDS011;54794;48.348;7.878;2023-02-13T03:50:23;3.08;;;1.83;;
68010;SDS011;54794;48.348;7.878;2023-02-13T03:53:00;3.47;;;1.95;;
68010;SDS011;54794;48.348;7.878;2023-02-13T03:55:35;2.42;;;1.55;;
68010;SDS011;54794;48.348;7.878;2023-02-13T03:58:30;3.25;;;1.77;;
68010;SDS011;54794;48.348;7.878;2023-02-13T04:01:21;2.72;;;1.60;;
68010;SDS011;54794;48.348;7.878;2023-02-13T04:09:30;3.55;;;1.85;;
68010;SDS011;54794;48.348;7.878;2023-02-13T04:12:11;2.85;;;1.77;;
68010;SDS011;54794;48.348;7.878;2023-02-13T04:14:47;3.72;;;1.95;;
68010;SDS011;54794;48.348;7.878;2023-02-13T04:17:32;3.08;;;1.85;;
68010;SDS011;54794;48.348;7.878;2023-02-13T04:20:07;3.22;;;1.98;;
68010;SDS011;54794;48.348;7.878;2023-02-13T04:25:09;2.00;;;1.40;;
68010;SDS011;54794;48.348;7.878;2023-02-13T04:27:38;2.20;;;1.52;;
68010;SDS011;54794;48.348;7.878;2023-02-13T04:30:05;3.03;;;1.55;;
68010;SDS011;54794;48.348;7.878;2023-02-13T04:32:34;2.67;;;1.52;;
68010;SDS011;54794;48.348;7.878;2023-02-13T04:35:01;3.90;;;2.00;;
68010;SDS011;54794;48.348;7.878;2023-02-13T04:37:28;3.80;;;2.28;;
68010;SDS011;54794;48.348;7.878;2023-02-13T04:39:55;3.50;;;1.88;;
68010;SDS011;54794;48.348;7.878;2023-02-13T04:42:22;2.55;;;1.52;;
68010;SDS011;54794;48.348;7.878;2023-02-13T04:44:49;1.92;;;1.45;;
68010;SDS011;54794;48.348;7.878;2023-02-13T04:47:16;3.30;;;1.88;;
68010;SDS011;54794;48.348;7.878;2023-02-13T04:49:42;3.63;;;2.00;;
68010;SDS011;54794;48.348;7.878;2023-02-13T04:52:09;3.40;;;1.77;;
68010;SDS011;54794;48.348;7.878;2023-02-13T04:54:36;2.80;;;1.77;;
68010;SDS011;54794;48.348;7.878;2023-02-13T04:57:03;3.15;;;1.65;;
68010;SDS011;54794;48.348;7.878;2023-02-13T04:59:30;3.25;;;1.58;;
68010;SDS011;54794;48.348;7.878;2023-02-13T05:01:57;2.75;;;1.70;;
68010;SDS011;54794;48.348;7.878;2023-02-13T05:04:24;3.70;;;1.85;;
68010;SDS011;54794;48.348;7.878;2023-02-13T05:09:19;2.97;;;1.50;;
68010;SDS011;54794;48.348;7.878;2023-02-13T05:11:46;2.78;;;1.70;;
68010;SDS011;54794;48.348;7.878;2023-02-13T05:14:16;2.38;;;1.27;;
68010;SDS011;54794;48.348;7.878;2023-02-13T05:16:42;2.78;;;1.63;;
68010;SDS011;54794;48.348;7.878;2023-02-13T05:19:10;3.28;;;1.80;;
68010;SDS011;54794;48.348;7.878;2023-02-13T05:21:37;3.10;;;1.65;;
68010;SDS011;54794;48.348;7.878;2023-02-13T05:24:22;2.58;;;1.63;;
68010;SDS011;54794;48.348;7.878;2023-02-13T05:26:49;4.15;;;2.65;;
68010;SDS011;54794;48.348;7.878;2023-02-13T05:29:16;3.47;;;2.17;;
68010;SDS011;54794;48.348;7.878;2023-02-13T05:31:51;8.05;;;2.03;;
68010;SDS011;54794;48.348;7.878;2023-02-13T05:34:21;6.90;;;2.40;;
68010;SDS011;54794;48.348;7.878;2023-02-13T05:36:50;3.75;;;2.35;;
68010;SDS011;54794;48.348;7.878;2023-02-13T05:39:18;3.65;;;2.25;;
68010;SDS011;54794;48.348;7.878;2023-02-13T05:41:46;4.28;;;2.28;;
68010;SDS011;54794;48.348;7.878;2023-02-13T05:44:14;3.20;;;2.15;;
68010;SDS011;54794;48.348;7.878;2023-02-13T05:46:42;4.25;;;2.42;;
68010;SDS011;54794;48.348;7.878;2023-02-13T05:49:10;4.38;;;2.72;;
68010;SDS011;54794;48.348;7.878;2023-02-13T05:51:40;4.05;;;2.65;;
68010;SDS011;54794;48.348;7.878;2023-02-13T05:54:07;4.82;;;2.80;;
68010;SDS011;54794;48.348;7.878;2023-02-13T05:56:34;6.05;;;2.97;;
68010;SDS011;54794;48.348;7.878;2023-02-13T05:59:01;5.03;;;2.70;;
68010;SDS011;54794;48.348;7.878;2023-02-13T06:01:29;7.63;;;3.47;;
68010;SDS011;54794;48.348;7.878;2023-02-13T06:03:56;10.57;;;3.25;;
68010;SDS011;54794;48.348;7.878;2023-02-13T06:06:25;5.07;;;2.85;;
68010;SDS011;54794;48.348;7.878;2023-02-13T06:08:53;4.88;;;2.90;;
68010;SDS011;54794;48.348;7.878;2023-02-13T06:11:20;4.80;;;2.75;;
68010;SDS011;54794;48.348;7.878;2023-02-13T06:13:47;4.07;;;2.40;;
68010;SDS011;54794;48.348;7.878;2023-02-13T06:16:14;4.35;;;2.78;;
68010;SDS011;54794;48.348;7.878;2023-02-13T06:18:41;4.35;;;3.33;;
68010;SDS011;54794;48.348;7.878;2023-02-13T06:21:08;3.60;;;2.80;;
68010;SDS011;54794;48.348;7.878;2023-02-13T06:23:35;4.60;;;2.63;;
68010;SDS011;54794;48.348;7.878;2023-02-13T06:26:06;3.85;;;2.35;;
68010;SDS011;54794;48.348;7.878;2023-02-13T06:28:34;4.20;;;2.70;;
68010;SDS011;54794;48.348;7.878;2023-02-13T06:31:01;3.50;;;2.25;;
68010;SDS011;54794;48.348;7.878;2023-02-13T06:33:28;3.78;;;2.40;;
68010;SDS011;54794;48.348;7.878;2023-02-13T06:35:56;2.60;;;1.70;;
68010;SDS011;54794;48.348;7.878;2023-02-13T06:38:23;4.18;;;2.50;;
68010;SDS011;54794;48.348;7.878;2023-02-13T06:40:50;3.38;;;2.20;;
68010;SDS011;54794;48.348;7.878;2023-02-13T06:43:17;3.17;;;2.25;;
68010;SDS011;54794;48.348;7.878;2023-02-13T06:45:44;4.18;;;2.00;;
68010;SDS011;54794;48.348;7.878;2023-02-13T06:48:12;3.75;;;1.98;;
68010;SDS011;54794;48.348;7.878;2023-02-13T06:55:37;4.45;;;2.53;;
68010;SDS011;54794;48.348;7.878;2023-02-13T06:58:06;4.65;;;2.85;;
68010;SDS011;54794;48.348;7.878;2023-02-13T07:00:33;5.97;;;3.25;;
68010;SDS011;54794;48.348;7.878;2023-02-13T07:03:03;6.07;;;3.20;;
68010;SDS011;54794;48.348;7.878;2023-02-13T07:05:39;5.18;;;2.72;;
68010;SDS011;54794;48.348;7.878;2023-02-13T07:08:17;4.80;;;2.83;;
68010;SDS011;54794;48.348;7.878;2023-02-13T07:10:51;6.18;;;3.30;;
68010;SDS011;54794;48.348;7.878;2023-02-13T07:13:18;7.03;;;2.47;;
68010;SDS011;54794;48.348;7.878;2023-02-13T07:15:46;8.18;;;3.05;;
68010;SDS011;54794;48.348;7.878;2023-02-13T07:22:08;5.13;;;2.80;;
68010;SDS011;54794;48.348;7.878;2023-02-13T07:24:35;5.32;;;2.92;;
68010;SDS011;54794;48.348;7.878;2023-02-13T07:27:04;8.88;;;2.45;;
68010;SDS011;54794;48.348;7.878;2023-02-13T07:29:36;5.60;;;2.30;;
68010;SDS011;54794;48.348;7.878;2023-02-13T07:36:28;5.72;;;2.38;;
68010;SDS011;54794;48.348;7.878;2023-02-13T07:39:32;10.35;;;7.05;;
68010;SDS011;54794;48.348;7.878;2023-02-13T07:41:59;6.80;;;4.05;;
68010;SDS011;54794;48.348;7.878;2023-02-13T07:44:26;4.10;;;2.38;;
68010;SDS011;54794;48.348;7.878;2023-02-13T07:46:53;4.63;;;2.88;;
68010;SDS011;54794;48.348;7.878;2023-02-13T07:49:20;6.88;;;4.30;;
68010;SDS011;54794;48.348;7.878;2023-02-13T07:51:47;6.22;;;3.63;;
68010;SDS011;54794;48.348;7.878;2023-02-13T07:54:14;7.13;;;3.58;;
68010;SDS011;54794;48.348;7.878;2023-02-13T07:56:40;7.00;;;3.58;;
68010;SDS011;54794;48.348;7.878;2023-02-13T07:59:09;5.72;;;3.03;;
68010;SDS011;54794;48.348;7.878;2023-02-13T08:01:36;5.97;;;3.97;;
68010;SDS011;54794;48.348;7.878;2023-02-13T08:06:31;3.10;;;1.95;;
68010;SDS011;54794;48.348;7.878;2023-02-13T08:08:58;3.53;;;2.50;;
68010;SDS011;54794;48.348;7.878;2023-02-13T08:11:44;3.33;;;2.20;;
68010;SDS011;54794;48.348;7.878;2023-02-13T08:14:24;4.07;;;2.28;;
68010;SDS011;54794;48.348;7.878;2023-02-13T08:16:52;3.58;;;2.15;;
68010;SDS011;54794;48.348;7.878;2023-02-13T08:19:20;5.97;;;3.88;;
68010;SDS011;54794;48.348;7.878;2023-02-13T08:21:47;3.97;;;2.47;;
68010;SDS011;54794;48.348;7.878;2023-02-13T08:26:42;4.13;;;2.40;;
68010;SDS011;54794;48.348;7.878;2023-02-13T08:31:37;11.68;;;7.03;;
68010;SDS011;54794;48.348;7.878;2023-02-13T08:34:04;4.95;;;3.13;;
68010;SDS011;54794;48.348;7.878;2023-02-13T08:36:31;3.17;;;2.33;;
68010;SDS011;54794;48.348;7.878;2023-02-13T08:38:58;4.32;;;2.58;;
68010;SDS011;54794;48.348;7.878;2023-02-13T08:41:25;4.03;;;2.63;;
68010;SDS011;54794;48.348;7.878;2023-02-13T08:43:53;4.28;;;2.53;;
68010;SDS011;54794;48.348;7.878;2023-02-13T08:46:20;4.47;;;2.72;;
68010;SDS011;54794;48.348;7.878;2023-02-13T08:48:48;5.10;;;2.88;;
68010;SDS011;54794;48.348;7.878;2023-02-13T08:51:18;3.92;;;2.30;;
68010;SDS011;54794;48.348;7.878;2023-02-13T08:53:45;5.00;;;2.92;;
68010;SDS011;54794;48.348;7.878;2023-02-13T08:56:12;4.68;;;2.55;;
68010;SDS011;54794;48.348;7.878;2023-02-13T08:58:39;5.40;;;3.08;;
68010;SDS011;54794;48.348;7.878;2023-02-13T09:03:35;11.73;;;3.17;;
68010;SDS011;54794;48.348;7.878;2023-02-13T09:06:02;5.35;;;3.15;;
68010;SDS011;54794;48.348;7.878;2023-02-13T09:08:30;4.13;;;2.85;;
68010;SDS011;54794;48.348;7.878;2023-02-13T09:10:57;5.95;;;3.33;;
68010;SDS011;54794;48.348;7.878;2023-02-13T09:13:28;5.53;;;3.45;;
68010;SDS011;54794;48.348;7.878;2023-02-13T09:15:59;6.90;;;3.80;;
68010;SDS011;54794;48.348;7.878;2023-02-13T09:18:31;6.13;;;2.70;;
68010;SDS011;54794;48.348;7.878;2023-02-13T09:21:01;5.30;;;3.22;;
68010;SDS011;54794;48.348;7.878;2023-02-13T09:23:34;9.10;;;3.85;;
68010;SDS011;54794;48.348;7.878;2023-02-13T09:26:06;6.10;;;3.55;;
68010;SDS011;54794;48.348;7.878;2023-02-13T09:28:36;5.43;;;3.35;;
68010;SDS011;54794;48.348;7.878;2023-02-13T09:31:08;5.97;;;3.30;;
68010;SDS011;54794;48.348;7.878;2023-02-13T09:33:45;5.68;;;3.55;;
68010;SDS011;54794;48.348;7.878;2023-02-13T09:36:15;4.22;;;2.95;;
68010;SDS011;54794;48.348;7.878;2023-02-13T09:38:47;6.30;;;3.53;;
68010;SDS011;54794;48.348;7.878;2023-02-13T09:41:28;6.40;;;3.35;;
68010;SDS011;54794;48.348;7.878;2023-02-13T09:47:03;5.50;;;3.25;;
68010;SDS011;54794;48.348;7.878;2023-02-13T09:50:10;5.15;;;3.35;;
68010;SDS011;54794;48.348;7.878;2023-02-13T09:52:44;5.75;;;3.35;;
68010;SDS011;54794;48.348;7.878;2023-02-13T09:55:17;7.60;;;3.50;;
68010;SDS011;54794;48.348;7.878;2023-02-13T10:00:56;5.57;;;3.22;;
68010;SDS011;54794;48.348;7.878;2023-02-13T10:03:28;5.97;;;3.28;;
68010;SDS011;54794;48.348;7.878;2023-02-13T10:06:48;6.03;;;3.45;;
68010;SDS011;54794;48.348;7.878;2023-02-13T10:09:29;5.55;;;3.17;;
68010;SDS011;54794;48.348;7.878;2023-02-13T10:12:37;7.40;;;4.07;;
68010;SDS011;54794;48.348;7.878;2023-02-13T10:18:11;5.50;;;3.25;;
68010;SDS011;54794;48.348;7.878;2023-02-13T10:20:49;6.22;;;3.75;;
68010;SDS011;54794;48.348;7.878;2023-02-13T10:23:25;6.13;;;3.80;;
68010;SDS011;54794;48.348;7.878;2023-02-13T10:26:03;5.07;;;3.55;;
68010;SDS011;54794;48.348;7.878;2023-02-13T10:28:45;7.40;;;3.58;;
68010;SDS011;54794;48.348;7.878;2023-02-13T10:31:49;7.03;;;3.78;;
68010;SDS011;54794;48.348;7.878;2023-02-13T10:34:21;5.97;;;3.67;;
68010;SDS011;54794;48.348;7.878;2023-02-13T10:36:53;5.95;;;3.65;;
68010;SDS011;54794;48.348;7.878;2023-02-13T10:39:22;5.30;;;3.35;;
68010;SDS011;54794;48.348;7.878;2023-02-13T10:41:54;6.78;;;3.80;;
68010;SDS011;54794;48.348;7.878;2023-02-13T10:50:35;5.53;;;3.58;;
68010;SDS011;54794;48.348;7.878;2023-02-13T10:56:46;5.65;;;3.33;;
68010;SDS011;54794;48.348;7.878;2023-02-13T10:59:48;6.63;;;4.10;;
68010;SDS011;54794;48.348;7.878;2023-02-13T11:05:10;5.57;;;3.30;;
68010;SDS011;54794;48.348;7.878;2023-02-13T11:07:44;6.97;;;4.03;;
68010;SDS011;54794;48.348;7.878;2023-02-13T11:10:19;7.25;;;4.25;;
68010;SDS011;54794;48.348;7.878;2023-02-13T11:12:50;7.43;;;4.43;;
68010;SDS011;54794;48.348;7.878;2023-02-13T11:15:22;7.30;;;4.28;;
68010;SDS011;54794;48.348;7.878;2023-02-13T11:17:52;6.95;;;3.70;;
68010;SDS011;54794;48.348;7.878;2023-02-13T11:20:36;7.30;;;4.72;;
68010;SDS011;54794;48.348;7.878;2023-02-13T11:25:58;8.73;;;4.85;;
68010;SDS011;54794;48.348;7.878;2023-02-13T11:28:31;10.55;;;5.35;;
68010;SDS011;54794;48.348;7.878;2023-02-13T11:31:10;7.90;;;4.68;;
68010;SDS011;54794;48.348;7.878;2023-02-13T11:33:38;8.38;;;4.80;;
68010;SDS011;54794;48.348;7.878;2023-02-13T11:36:12;10.10;;;5.53;;
68010;SDS011;54794;48.348;7.878;2023-02-13T11:38:42;8.90;;;4.75;;
68010;SDS011;54794;48.348;7.878;2023-02-13T11:41:13;7.07;;;4.40;;
68010;SDS011;54794;48.348;7.878;2023-02-13T11:44:14;8.63;;;4.95;;
68010;SDS011;54794;48.348;7.878;2023-02-13T11:46:46;8.50;;;5.18;;
68010;SDS011;54794;48.348;7.878;2023-02-13T11:49:20;9.02;;;4.85;;
68010;SDS011;54794;48.348;7.878;2023-02-13T11:52:12;9.32;;;5.25;;
68010;SDS011;54794;48.348;7.878;2023-02-13T11:54:55;6.47;;;4.28;;
68010;SDS011;54794;48.348;7.878;2023-02-13T11:57:34;8.90;;;5.15;;
68010;SDS011;54794;48.348;7.878;2023-02-13T12:02:58;7.80;;;4.53;;
68010;SDS011;54794;48.348;7.878;2023-02-13T12:05:26;8.13;;;5.00;;
68010;SDS011;54794;48.348;7.878;2023-02-13T12:07:56;8.13;;;5.32;;
68010;SDS011;54794;48.348;7.878;2023-02-13T12:10:28;7.40;;;4.57;;
68010;SDS011;54794;48.348;7.878;2023-02-13T12:13:08;8.85;;;5.20;;
68010;SDS011;54794;48.348;7.878;2023-02-13T12:15:46;7.90;;;4.55;;
68010;SDS011;54794;48.348;7.878;2023-02-13T12:18:36;6.78;;;4.28;;
68010;SDS011;54794;48.348;7.878;2023-02-13T12:32:47;9.25;;;5.93;;
68010;SDS011;54794;48.348;7.878;2023-02-13T12:39:03;8.93;;;5.30;;
68010;SDS011;54794;48.348;7.878;2023-02-13T12:41:37;10.45;;;5.50;;
68010;SDS011;54794;48.348;7.878;2023-02-13T12:58:56;7.60;;;4.55;;
68010;SDS011;54794;48.348;7.878;2023-02-13T13:05:02;7.68;;;4.88;;
68010;SDS011;54794;48.348;7.878;2023-02-13T13:11:01;8.63;;;4.82;;
68010;SDS011;54794;48.348;7.878;2023-02-13T13:27:46;9.13;;;5.25;;
68010;SDS011;54794;48.348;7.878;2023-02-13T13:30:25;8.95;;;5.65;;
68010;SDS011;54794;48.348;7.878;2023-02-13T13:33:02;11.60;;;5.90;;
68010;SDS011;54794;48.348;7.878;2023-02-13T13:35:37;9.13;;;5.18;;
68010;SDS011;54794;48.348;7.878;2023-02-13T13:38:45;10.35;;;6.28;;
68010;SDS011;54794;48.348;7.878;2023-02-13T13:41:17;9.32;;;5.03;;
68010;SDS011;54794;48.348;7.878;2023-02-13T13:51:47;9.35;;;5.57;;
68010;SDS011;54794;48.348;7.878;2023-02-13T14:07:33;11.45;;;6.43;;
68010;SDS011;54794;48.348;7.878;2023-02-13T14:23:25;10.45;;;6.13;;
68010;SDS011;54794;48.348;7.878;2023-02-13T14:36:38;8.02;;;4.53;;
68010;SDS011;54794;48.348;7.878;2023-02-13T14:39:24;7.93;;;5.10;;
68010;SDS011;54794;48.348;7.878;2023-02-13T14:42:05;7.93;;;4.97;;
68010;SDS011;54794;48.348;7.878;2023-02-13T14:44:55;9.20;;;5.65;;
68010;SDS011;54794;48.348;7.878;2023-02-13T14:47:32;10.35;;;6.22;;
68010;SDS011;54794;48.348;7.878;2023-02-13T14:50:13;8.25;;;5.05;;
68010;SDS011;54794;48.348;7.878;2023-02-13T14:52:46;8.38;;;5.28;;
68010;SDS011;54794;48.348;7.878;2023-02-13T14:55:27;9.93;;;5.38;;
68010;SDS011;54794;48.348;7.878;2023-02-13T14:58:09;9.00;;;5.53;;
68010;SDS011;54794;48.348;7.878;2023-02-13T15:03:47;10.55;;;6.57;;
68010;SDS011;54794;48.348;7.878;2023-02-13T15:06:41;8.80;;;5.57;;
68010;SDS011;54794;48.348;7.878;2023-02-13T15:09:25;9.50;;;5.32;;
68010;SDS011;54794;48.348;7.878;2023-02-13T15:12:22;7.90;;;5.13;;
68010;SDS011;54794;48.348;7.878;2023-02-13T15:15:04;7.55;;;4.40;;
68010;SDS011;54794;48.348;7.878;2023-02-13T15:17:53;8.45;;;5.38;;
68010;SDS011;54794;48.348;7.878;2023-02-13T15:20:27;8.15;;;5.03;;
68010;SDS011;54794;48.348;7.878;2023-02-13T15:22:59;9.65;;;5.53;;
68010;SDS011;54794;48.348;7.878;2023-02-13T15:25:34;8.90;;;5.18;;
68010;SDS011;54794;48.348;7.878;2023-02-13T15:28:05;8.02;;;5.05;;
68010;SDS011;54794;48.348;7.878;2023-02-13T15:30:42;10.90;;;5.97;;
68010;SDS011;54794;48.348;7.878;2023-02-13T15:33:32;8.55;;;5.20;;
68010;SDS011;54794;48.348;7.878;2023-02-13T15:36:15;9.23;;;5.05;;
68010;SDS011;54794;48.348;7.878;2023-02-13T15:38:47;9.73;;;5.95;;
68010;SDS011;54794;48.348;7.878;2023-02-13T15:41:19;8.15;;;4.95;;
68010;SDS011;54794;48.348;7.878;2023-02-13T15:43:50;9.98;;;5.25;;
68010;SDS011;54794;48.348;7.878;2023-02-13T15:46:27;8.18;;;5.00;;
68010;SDS011;54794;48.348;7.878;2023-02-13T15:49:04;8.97;;;5.00;;
68010;SDS011;54794;48.348;7.878;2023-02-13T15:51:34;8.88;;;5.28;;
68010;SDS011;54794;48.348;7.878;2023-02-13T15:54:46;9.93;;;5.82;;
68010;SDS011;54794;48.348;7.878;2023-02-13T15:57:09;8.57;;;5.10;;
68010;SDS011;54794;48.348;7.878;2023-02-13T15:59:37;7.88;;;4.75;;
68010;SDS011;54794;48.348;7.878;2023-02-13T16:02:10;9.70;;;5.72;;
68010;SDS011;54794;48.348;7.878;2023-02-13T16:04:44;8.50;;;5.15;;
68010;SDS011;54794;48.348;7.878;2023-02-13T16:07:16;9.57;;;5.75;;
68010;SDS011;54794;48.348;7.878;2023-02-13T16:09:43;10.02;;;5.72;;
68010;SDS011;54794;48.348;7.878;2023-02-13T16:17:31;10.05;;;5.82;;
68010;SDS011;54794;48.348;7.878;2023-02-13T16:20:06;9.35;;;5.47;;
68010;SDS011;54794;48.348;7.878;2023-02-13T16:22:44;10.45;;;6.13;;
68010;SDS011;54794;48.348;7.878;2023-02-13T16:25:15;7.93;;;5.05;;
68010;SDS011;54794;48.348;7.878;2023-02-13T16:28:24;9.85;;;5.68;;
68010;SDS011;54794;48.348;7.878;2023-02-13T16:30:57;9.52;;;6.00;;
68010;SDS011;54794;48.348;7.878;2023-02-13T16:33:34;11.45;;;5.88;;
68010;SDS011;54794;48.348;7.878;2023-02-13T16:38:39;8.70;;;5.30;;
68010;SDS011;54794;48.348;7.878;2023-02-13T16:43:49;8.63;;;5.20;;
68010;SDS011;54794;48.348;7.878;2023-02-13T16:55:04;7.05;;;4.13;;
68010;SDS011;54794;48.348;7.878;2023-02-13T16:58:14;9.13;;;4.30;;
68010;SDS011;54794;48.348;7.878;2023-02-13T17:01:15;8.02;;;4.85;;
68010;SDS011;54794;48.348;7.878;2023-02-13T17:03:50;8.30;;;4.82;;
68010;SDS011;54794;48.348;7.878;2023-02-13T17:06:27;9.27;;;5.38;;
68010;SDS011;54794;48.348;7.878;2023-02-13T17:09:09;8.43;;;5.13;;
68010;SDS011;54794;48.348;7.878;2023-02-13T17:11:39;8.30;;;5.00;;
68010;SDS011;54794;48.348;7.878;2023-02-13T17:14:25;8.57;;;4.97;;
68010;SDS011;54794;48.348;7.878;2023-02-13T17:16:54;9.30;;;5.05;;
68010;SDS011;54794;48.348;7.878;2023-02-13T17:19:28;6.57;;;4.07;;
68010;SDS011;54794;48.348;7.878;2023-02-13T17:21:55;11.15;;;5.15;;
68010;SDS011;54794;48.348;7.878;2023-02-13T17:24:24;7.45;;;4.78;;
68010;SDS011;54794;48.348;7.878;2023-02-13T17:26:53;11.07;;;4.75;;
68010;SDS011;54794;48.348;7.878;2023-02-13T17:29:21;9.73;;;4.65;;
68010;SDS011;54794;48.348;7.878;2023-02-13T17:31:49;8.52;;;4.90;;
68010;SDS011;54794;48.348;7.878;2023-02-13T17:34:22;7.88;;;4.22;;
68010;SDS011;54794;48.348;7.878;2023-02-13T17:36:52;8.23;;;4.82;;
68010;SDS011;54794;48.348;7.878;2023-02-13T17:39:19;8.30;;;5.03;;
68010;SDS011;54794;48.348;7.878;2023-02-13T17:41:46;10.75;;;4.82;;
68010;SDS011;54794;48.348;7.878;2023-02-13T17:44:18;6.40;;;4.38;;
68010;SDS011;54794;48.348;7.878;2023-02-13T17:46:45;6.93;;;4.13;;
68010;SDS011;54794;48.348;7.878;2023-02-13T17:49:18;7.05;;;4.38;;
68010;SDS011;54794;48.348;7.878;2023-02-13T17:51:52;6.25;;;3.88;;
68010;SDS011;54794;48.348;7.878;2023-02-13T17:54:20;7.60;;;5.10;;
68010;SDS011;54794;48.348;7.878;2023-02-13T17:56:51;8.82;;;4.65;;
68010;SDS011;54794;48.348;7.878;2023-02-13T17:59:22;7.35;;;4.43;;
68010;SDS011;54794;48.348;7.878;2023-02-13T18:01:51;8.25;;;4.85;;
68010;SDS011;54794;48.348;7.878;2023-02-13T18:04:22;6.45;;;3.72;;
68010;SDS011;54794;48.348;7.878;2023-02-13T18:06:51;6.15;;;4.13;;
68010;SDS011;54794;48.348;7.878;2023-02-13T18:09:20;7.68;;;4.65;;
68010;SDS011;54794;48.348;7.878;2023-02-13T18:11:52;8.55;;;5.18;;
68010;SDS011;54794;48.348;7.878;2023-02-13T18:14:31;9.95;;;4.38;;
68010;SDS011;54794;48.348;7.878;2023-02-13T18:17:02;7.75;;;4.60;;
68010;SDS011;54794;48.348;7.878;2023-02-13T18:19:30;9.10;;;5.25;;
68010;SDS011;54794;48.348;7.878;2023-02-13T18:21:57;9.18;;;5.25;;
68010;SDS011;54794;48.348;7.878;2023-02-13T18:24:28;8.85;;;4.97;;
68010;SDS011;54794;48.348;7.878;2023-02-13T18:26:59;8.25;;;5.18;;
68010;SDS011;54794;48.348;7.878;2023-02-13T18:29:33;13.02;;;5.03;;
68010;SDS011;54794;48.348;7.878;2023-02-13T18:32:04;8.35;;;4.30;;
68010;SDS011;54794;48.348;7.878;2023-02-13T18:34:37;8.15;;;4.75;;
68010;SDS011;54794;48.348;7.878;2023-02-13T18:37:07;6.15;;;4.07;;
68010;SDS011;54794;48.348;7.878;2023-02-13T18:39:37;7.47;;;4.65;;
68010;SDS011;54794;48.348;7.878;2023-02-13T18:42:05;6.72;;;3.78;;
68010;SDS011;54794;48.348;7.878;2023-02-13T18:44:33;8.85;;;4.38;;
68010;SDS011;54794;48.348;7.878;2023-02-13T18:47:03;7.00;;;4.43;;
68010;SDS011;54794;48.348;7.878;2023-02-13T18:49:31;6.60;;;4.40;;
68010;SDS011;54794;48.348;7.878;2023-02-13T18:51:59;6.40;;;4.18;;
68010;SDS011;54794;48.348;7.878;2023-02-13T18:54:27;6.70;;;4.13;;
68010;SDS011;54794;48.348;7.878;2023-02-13T18:56:57;7.85;;;4.15;;